createdAt,value
2023-02-11T00:00:58.286Z,974.69
2023-02-11T00:03:57.680Z,974.6
2023-02-11T00:06:57.824Z,974.63
2023-02-11T00:09:57.312Z,974.57
2023-02-11T00:12:57.572Z,974.5
2023-02-11T00:15:57.350Z,974.5
2023-02-11T00:18:57.398Z,974.54
2023-02-11T00:21:57.117Z,974.58
2023-02-11T00:24:57.009Z,974.55
2023-02-11T00:27:57.313Z,974.41
2023-02-11T00:30:57.430Z,974.37
2023-02-11T00:33:57.307Z,974.35
2023-02-11T00:36:56.878Z,974.37
2023-02-11T00:39:57.383Z,974.29
2023-02-11T00:42:57.823Z,974.36
2023-02-11T00:45:56.928Z,974.32
2023-02-11T00:48:57.676Z,974.36
2023-02-11T00:51:57.885Z,974.36
2023-02-11T00:54:56.639Z,974.34
2023-02-11T00:57:57.522Z,974.24
2023-02-11T01:00:57.554Z,974.28
2023-02-11T01:03:57.946Z,974.22
2023-02-11T01:06:57.146Z,974.13
2023-02-11T01:09:57.982Z,974.05
2023-02-11T01:12:57.489Z,974.06
2023-02-11T01:15:57.877Z,973.93
2023-02-11T01:18:57.791Z,973.83
2023-02-11T01:21:57.437Z,973.75
2023-02-11T01:24:57.360Z,973.66
2023-02-11T01:27:57.402Z,973.6
2023-02-11T01:30:58.084Z,973.63
2023-02-11T01:33:56.643Z,973.47
2023-02-11T01:36:57.134Z,973.51
2023-02-11T01:39:57.812Z,973.5
2023-02-11T01:42:57.118Z,973.52
2023-02-11T01:45:57.643Z,973.51
2023-02-11T01:48:57.021Z,973.64
2023-02-11T01:51:57.829Z,973.64
2023-02-11T01:54:57.296Z,973.67
2023-02-11T01:57:57.307Z,973.7
2023-02-11T02:00:57.130Z,973.7
2023-02-11T02:03:57.857Z,973.7
2023-02-11T02:06:56.987Z,973.6
2023-02-11T02:09:57.354Z,973.59
2023-02-11T02:12:57.614Z,973.64
2023-02-11T02:15:56.732Z,973.67
2023-02-11T02:18:57.404Z,973.6
2023-02-11T02:21:57.007Z,973.48
2023-02-11T02:24:57.610Z,973.48
2023-02-11T02:27:57.123Z,973.43
2023-02-11T02:30:57.775Z,973.37
2023-02-11T02:33:57.634Z,973.33
2023-02-11T02:36:56.954Z,973.29
2023-02-11T02:39:57.576Z,973.21
2023-02-11T02:42:56.556Z,973.23
2023-02-11T02:45:58.098Z,973.14
2023-02-11T02:48:57.655Z,973.12
2023-02-11T02:51:56.973Z,973.04
2023-02-11T02:54:57.516Z,973.07
2023-02-11T02:57:56.961Z,973.01
2023-02-11T03:00:57.568Z,973.0
2023-02-11T03:03:57.167Z,973.03
2023-02-11T03:06:57.572Z,973.04
2023-02-11T03:09:57.912Z,973.04
2023-02-11T03:12:57.688Z,973.04
2023-02-11T03:15:57.455Z,973.04
2023-02-11T03:18:56.799Z,973.08
2023-02-11T03:21:57.444Z,973.13
2023-02-11T03:24:57.538Z,973.07
2023-02-11T03:27:57.107Z,973.07
2023-02-11T03:30:57.370Z,973.1
2023-02-11T03:33:57.360Z,973.18
2023-02-11T03:36:57.998Z,973.21
2023-02-11T03:39:56.795Z,973.3
2023-02-11T03:42:57.109Z,973.27
2023-02-11T03:45:57.668Z,973.28
2023-02-11T03:48:56.928Z,973.18
2023-02-11T03:51:57.319Z,973.1
2023-02-11T03:54:57.208Z,973.27
2023-02-11T03:57:56.909Z,973.17
2023-02-11T04:00:58.086Z,973.33
2023-02-11T04:03:57.977Z,973.27
2023-02-11T04:06:57.787Z,973.21
2023-02-11T04:09:57.077Z,973.19
2023-02-11T04:12:57.729Z,973.15
2023-02-11T04:15:57.649Z,973.15
2023-02-11T04:18:57.172Z,973.05
2023-02-11T04:21:57.649Z,973.14
2023-02-11T04:24:57.396Z,973.03
2023-02-11T04:27:57.792Z,973.11
2023-02-11T04:30:56.744Z,973.23
2023-02-11T04:33:57.000Z,973.19
2023-02-11T04:36:57.332Z,973.25
2023-02-11T04:39:57.596Z,973.13
2023-02-11T04:42:57.624Z,973.0
2023-02-11T04:45:57.450Z,973.05
2023-02-11T04:48:57.579Z,973.1
2023-02-11T04:51:57.292Z,973.19
2023-02-11T04:54:57.453Z,973.23
2023-02-11T04:57:57.260Z,973.13
2023-02-11T05:00:57.510Z,973.16
2023-02-11T05:03:57.732Z,973.15
2023-02-11T05:06:58.666Z,973.14
2023-02-11T05:09:57.659Z,972.97
2023-02-11T05:12:57.272Z,972.92
2023-02-11T05:15:57.548Z,972.74
2023-02-11T05:18:57.024Z,972.84
2023-02-11T05:22:03.181Z,972.85
2023-02-11T05:24:56.897Z,972.94
2023-02-11T05:27:57.029Z,972.79
2023-02-11T05:30:57.627Z,972.7
2023-02-11T05:33:56.921Z,972.84
2023-02-11T05:36:57.094Z,972.65
2023-02-11T05:39:56.839Z,972.77
2023-02-11T05:42:56.960Z,972.75
2023-02-11T05:45:57.431Z,972.68
2023-02-11T05:48:57.030Z,972.79
2023-02-11T05:51:57.610Z,972.71
2023-02-11T05:54:57.472Z,972.58
2023-02-11T05:57:57.975Z,972.59
2023-02-11T06:00:58.401Z,972.55
2023-02-11T06:03:57.050Z,972.76
2023-02-11T06:06:57.662Z,972.62
2023-02-11T06:09:57.209Z,972.65
2023-02-11T06:12:57.443Z,972.69
2023-02-11T06:15:57.660Z,972.79
2023-02-11T06:18:57.033Z,972.75
2023-02-11T06:21:57.356Z,972.7
2023-02-11T06:25:01.659Z,972.82
2023-02-11T06:27:57.315Z,972.73
2023-02-11T06:30:57.670Z,972.79
2023-02-11T06:34:02.790Z,972.83
2023-02-11T06:36:57.045Z,972.79
2023-02-11T06:39:57.680Z,972.78
2023-02-11T06:42:57.208Z,972.75
2023-02-11T06:45:58.497Z,972.67
2023-02-11T06:48:56.770Z,972.6
2023-02-11T06:51:56.868Z,972.49
2023-02-11T06:54:57.777Z,972.46
2023-02-11T06:57:56.767Z,972.56
2023-02-11T07:00:57.581Z,972.74
2023-02-11T07:03:56.966Z,972.73
2023-02-11T07:06:57.651Z,972.71
2023-02-11T07:09:57.632Z,972.83
2023-02-11T07:12:58.785Z,972.85
2023-02-11T07:15:58.059Z,972.85
2023-02-11T07:18:57.381Z,972.74
2023-02-11T07:21:57.129Z,972.73
2023-02-11T07:24:57.242Z,972.81
2023-02-11T07:27:57.802Z,972.97
2023-02-11T07:30:57.556Z,972.92
2023-02-11T07:33:57.121Z,972.83
2023-02-11T07:36:56.936Z,972.81
2023-02-11T07:39:57.879Z,972.91
2023-02-11T07:42:57.481Z,972.97
2023-02-11T07:45:57.927Z,972.96
2023-02-11T07:48:57.775Z,972.73
2023-02-11T07:51:57.387Z,972.66
2023-02-11T07:54:57.099Z,972.71
2023-02-11T07:57:56.999Z,972.67
2023-02-11T08:00:57.988Z,972.7
2023-02-11T08:03:57.352Z,972.64
2023-02-11T08:06:58.958Z,972.68
2023-02-11T08:09:57.225Z,972.6
2023-02-11T08:12:57.710Z,972.6
2023-02-11T08:15:57.045Z,972.77
2023-02-11T08:19:02.497Z,972.77
2023-02-11T08:21:57.776Z,972.75
2023-02-11T08:24:58.481Z,972.78
2023-02-11T08:27:57.543Z,972.71
2023-02-11T08:30:57.451Z,972.79
2023-02-11T08:33:57.399Z,972.9
2023-02-11T08:36:57.830Z,972.85
2023-02-11T08:39:57.337Z,972.91
2023-02-11T08:42:56.849Z,972.78
2023-02-11T08:45:57.882Z,972.85
2023-02-11T08:48:57.210Z,972.58
2023-02-11T08:51:57.200Z,972.61
2023-02-11T08:54:57.589Z,972.65
2023-02-11T08:57:57.946Z,972.62
2023-02-11T09:00:57.959Z,972.72
2023-02-11T09:03:57.264Z,972.62
2023-02-11T09:06:57.405Z,972.59
2023-02-11T09:09:57.947Z,972.53
2023-02-11T09:12:57.062Z,972.43
2023-02-11T09:15:57.224Z,972.49
2023-02-11T09:18:57.182Z,972.54
2023-02-11T09:21:57.609Z,972.45
2023-02-11T09:24:57.259Z,972.48
2023-02-11T09:28:02.724Z,972.44
2023-02-11T09:30:57.635Z,972.58
2023-02-11T09:33:56.689Z,972.57
2023-02-11T09:36:56.993Z,972.62
2023-02-11T09:39:56.962Z,972.45
2023-02-11T09:43:01.796Z,972.54
2023-02-11T09:45:58.054Z,972.62
2023-02-11T09:48:57.087Z,972.66
2023-02-11T09:51:57.584Z,972.74
2023-02-11T09:54:57.210Z,972.83
2023-02-11T09:57:58.162Z,972.87
2023-02-11T10:00:57.693Z,972.89
2023-02-11T10:03:57.270Z,972.87
2023-02-11T10:06:57.700Z,972.96
2023-02-11T10:09:57.273Z,973.04
2023-02-11T10:12:56.867Z,973.17
2023-02-11T10:15:57.836Z,973.17
2023-02-11T10:18:57.071Z,973.14
2023-02-11T10:21:57.694Z,973.14
2023-02-11T10:24:57.677Z,973.04
2023-02-11T10:27:57.695Z,972.97
2023-02-11T10:30:57.220Z,972.98
2023-02-11T10:33:57.084Z,972.87
2023-02-11T10:36:57.776Z,972.85
2023-02-11T10:39:57.306Z,972.81
2023-02-11T10:42:57.360Z,972.92
2023-02-11T10:45:58.082Z,972.82
2023-02-11T10:48:57.379Z,972.78
2023-02-11T10:51:57.026Z,972.69
2023-02-11T10:54:57.509Z,972.79
2023-02-11T10:57:57.677Z,972.78
2023-02-11T11:00:58.039Z,972.67
2023-02-11T11:04:16.515Z,972.71
2023-02-11T11:06:57.721Z,972.81
2023-02-11T11:09:57.422Z,972.84
2023-02-11T11:12:57.264Z,972.71
2023-02-11T11:15:57.099Z,972.68
2023-02-11T11:18:57.149Z,972.79
2023-02-11T11:21:57.406Z,972.7
2023-02-11T11:24:57.634Z,972.72
2023-02-11T11:27:57.682Z,972.64
2023-02-11T11:30:57.657Z,972.58
2023-02-11T11:33:57.048Z,972.58
2023-02-11T11:36:57.514Z,972.52
2023-02-11T11:39:57.685Z,972.49
2023-02-11T11:42:57.124Z,972.44
2023-02-11T11:45:57.456Z,972.48
2023-02-11T11:48:57.467Z,972.48
2023-02-11T11:51:57.830Z,972.52
2023-02-11T11:54:57.223Z,972.57
2023-02-11T11:57:57.784Z,972.61
2023-02-11T12:00:57.665Z,972.64
2023-02-11T12:03:57.410Z,972.71
2023-02-11T12:06:57.804Z,972.68
2023-02-11T12:09:58.274Z,972.65
2023-02-11T12:12:57.782Z,972.69
2023-02-11T12:15:57.838Z,972.68
2023-02-11T12:18:57.267Z,972.73
2023-02-11T12:21:58.156Z,972.69
2023-02-11T12:24:57.236Z,972.53
2023-02-11T12:27:57.597Z,972.39
2023-02-11T12:30:57.241Z,972.36
2023-02-11T12:33:57.988Z,972.44
2023-02-11T12:36:57.076Z,972.39
2023-02-11T12:39:57.225Z,972.4
2023-02-11T12:42:58.976Z,972.3
2023-02-11T12:45:58.143Z,972.34
2023-02-11T12:48:57.826Z,972.27
2023-02-11T12:51:57.715Z,972.41
2023-02-11T12:54:58.013Z,972.36
2023-02-11T12:57:57.789Z,972.4
2023-02-11T13:00:57.695Z,972.33
2023-02-11T13:03:57.808Z,972.27
2023-02-11T13:06:57.512Z,972.36
2023-02-11T13:09:58.483Z,972.24
2023-02-11T13:12:57.143Z,972.22
2023-02-11T13:15:57.964Z,972.15
2023-02-11T13:18:57.478Z,972.18
2023-02-11T13:21:57.070Z,972.14
2023-02-11T13:24:57.137Z,972.15
2023-02-11T13:27:57.674Z,972.18
2023-02-11T13:30:58.187Z,972.12
2023-02-11T13:33:57.648Z,972.19
2023-02-11T13:36:57.172Z,972.13
2023-02-11T13:39:57.996Z,972.09
2023-02-11T13:42:57.910Z,972.06
2023-02-11T13:45:57.135Z,972.09
2023-02-11T13:48:57.980Z,972.09
2023-02-11T13:51:57.978Z,972.07
2023-02-11T13:54:57.515Z,972.1
2023-02-11T13:57:57.234Z,972.13
2023-02-11T14:00:57.633Z,972.05
2023-02-11T14:03:57.285Z,972.12
2023-02-11T14:06:57.896Z,972.02
2023-02-11T14:09:57.644Z,972.03
2023-02-11T14:12:57.568Z,971.91
2023-02-11T14:15:57.232Z,971.94
2023-02-11T14:18:57.656Z,971.93
2023-02-11T14:21:57.177Z,971.98
2023-02-11T14:24:57.646Z,972.05
2023-02-11T14:27:57.223Z,971.98
2023-02-11T14:30:58.142Z,972.01
2023-02-11T14:33:57.713Z,972.06
2023-02-11T14:36:58.158Z,972.04
2023-02-11T14:39:57.211Z,972.04
2023-02-11T14:42:57.937Z,971.94
2023-02-11T14:45:57.354Z,972.1
2023-02-11T14:48:56.577Z,972.1
2023-02-11T14:51:58.052Z,972.03
2023-02-11T14:54:57.542Z,972.12
2023-02-11T14:57:56.842Z,972.22
2023-02-11T15:00:57.365Z,972.15
2023-02-11T15:03:57.638Z,972.25
2023-02-11T15:06:57.065Z,972.35
2023-02-11T15:09:57.560Z,972.33
2023-02-11T15:12:56.898Z,972.36
2023-02-11T15:15:57.806Z,972.48
2023-02-11T15:18:57.505Z,972.33
2023-02-11T15:21:57.699Z,972.44
2023-02-11T15:24:57.623Z,972.4
2023-02-11T15:27:57.416Z,972.46
2023-02-11T15:30:57.025Z,972.38
2023-02-11T15:33:56.990Z,972.46
2023-02-11T15:36:57.596Z,972.58
2023-02-11T15:39:57.589Z,972.57
2023-02-11T15:42:58.630Z,972.64
2023-02-11T15:45:58.112Z,972.55
2023-02-11T15:48:57.400Z,972.58
2023-02-11T15:51:56.819Z,972.71
2023-02-11T15:54:57.803Z,972.68
2023-02-11T15:57:57.712Z,972.63
2023-02-11T16:00:57.288Z,972.69
2023-02-11T16:03:57.708Z,972.77
2023-02-11T16:06:57.577Z,972.78
2023-02-11T16:09:57.471Z,972.84
2023-02-11T16:12:57.296Z,972.89
2023-02-11T16:15:57.638Z,972.9
2023-02-11T16:19:04.840Z,972.79
2023-02-11T16:21:57.202Z,972.99
2023-02-11T16:24:57.386Z,972.9
2023-02-11T16:27:57.838Z,972.89
2023-02-11T16:30:57.679Z,972.96
2023-02-11T16:33:57.063Z,972.93
2023-02-11T16:36:57.249Z,972.98
2023-02-11T16:39:57.794Z,972.92
2023-02-11T16:42:56.699Z,972.98
2023-02-11T16:45:57.556Z,973.01
2023-02-11T16:48:57.850Z,972.99
2023-02-11T16:51:56.811Z,973.06
2023-02-11T16:54:57.546Z,972.98
2023-02-11T16:57:56.842Z,972.99
2023-02-11T17:00:57.978Z,973.03
2023-02-11T17:03:58.279Z,973.07
2023-02-11T17:06:58.393Z,973.13
2023-02-11T17:09:57.796Z,973.15
2023-02-11T17:12:57.234Z,973.17
2023-02-11T17:15:58.025Z,973.16
2023-02-11T17:18:57.226Z,973.09
2023-02-11T17:21:57.035Z,973.17
2023-02-11T17:24:57.979Z,973.17
2023-02-11T17:27:57.647Z,973.2
2023-02-11T17:30:56.905Z,973.2
2023-02-11T17:33:56.853Z,973.14
2023-02-11T17:36:57.970Z,973.18
2023-02-11T17:39:57.154Z,973.08
2023-02-11T17:42:57.738Z,973.24
2023-02-11T17:45:57.794Z,973.3
2023-02-11T17:48:56.987Z,973.24
2023-02-11T17:51:57.030Z,973.27
2023-02-11T17:54:57.203Z,973.35
2023-02-11T17:57:57.602Z,973.32
2023-02-11T18:00:57.693Z,973.45
2023-02-11T18:03:57.622Z,973.48
2023-02-11T18:06:57.124Z,973.39
2023-02-11T18:09:57.616Z,973.36
2023-02-11T18:12:57.365Z,973.32
2023-02-11T18:15:57.394Z,973.35
2023-02-11T18:18:58.159Z,973.31
2023-02-11T18:21:58.615Z,973.39
2023-02-11T18:24:57.334Z,973.38
2023-02-11T18:27:57.873Z,973.29
2023-02-11T18:30:58.385Z,973.44
2023-02-11T18:33:57.180Z,973.46
2023-02-11T18:36:57.895Z,973.36
2023-02-11T18:39:58.530Z,973.33
2023-02-11T18:42:57.110Z,973.4
2023-02-11T18:45:57.324Z,973.31
2023-02-11T18:48:57.435Z,973.4
2023-02-11T18:51:57.981Z,973.32
2023-02-11T18:54:57.741Z,973.28
2023-02-11T18:57:57.528Z,973.35
2023-02-11T19:01:26.285Z,973.39
2023-02-11T19:03:56.958Z,973.39
2023-02-11T19:06:57.460Z,973.36
2023-02-11T19:09:57.578Z,973.39
2023-02-11T19:12:57.124Z,973.36
2023-02-11T19:15:57.267Z,973.43
2023-02-11T19:18:57.515Z,973.46
2023-02-11T19:21:57.336Z,973.5
2023-02-11T19:24:57.569Z,973.57
2023-02-11T19:27:57.535Z,973.55
2023-02-11T19:30:57.822Z,973.52
2023-02-11T19:33:57.431Z,973.33
2023-02-11T19:36:57.363Z,973.46
2023-02-11T19:39:57.361Z,973.5
2023-02-11T19:42:57.833Z,973.46
2023-02-11T19:45:57.256Z,973.36
2023-02-11T19:48:57.423Z,973.5
2023-02-11T19:51:57.376Z,973.55
2023-02-11T19:54:57.504Z,973.46
2023-02-11T19:57:56.933Z,973.51
2023-02-11T20:00:57.987Z,973.5
2023-02-11T20:03:57.902Z,973.54
2023-02-11T20:06:57.824Z,973.6
2023-02-11T20:09:58.101Z,973.56
2023-02-11T20:12:57.072Z,973.56
2023-02-11T20:15:58.022Z,973.57
2023-02-11T20:18:57.575Z,973.54
2023-02-11T20:21:57.204Z,973.47
2023-02-11T20:24:57.333Z,973.57
2023-02-11T20:27:57.117Z,973.6
2023-02-11T20:30:57.187Z,973.56
2023-02-11T20:33:57.439Z,973.57
2023-02-11T20:36:57.131Z,973.6
2023-02-11T20:39:57.285Z,973.56
2023-02-11T20:42:57.398Z,973.69
2023-02-11T20:45:57.231Z,973.67
2023-02-11T20:48:57.612Z,973.74
2023-02-11T20:51:57.274Z,973.84
2023-02-11T20:54:57.469Z,973.76
2023-02-11T20:57:57.264Z,973.89
2023-02-11T21:00:58.317Z,973.97
2023-02-11T21:03:57.769Z,973.96
2023-02-11T21:06:57.396Z,974.0
2023-02-11T21:09:57.063Z,974.09
2023-02-11T21:12:57.719Z,974.06
2023-02-11T21:15:58.439Z,973.97
2023-02-11T21:18:57.759Z,974.11
2023-02-11T21:21:57.678Z,974.06
2023-02-11T21:24:57.077Z,974.04
2023-02-11T21:27:57.870Z,973.99
2023-02-11T21:31:02.997Z,974.11
2023-02-11T21:33:57.473Z,974.13
2023-02-11T21:36:57.558Z,974.16
2023-02-11T21:39:57.613Z,974.21
2023-02-11T21:42:57.294Z,974.15
2023-02-11T21:45:57.120Z,974.23
2023-02-11T21:48:56.973Z,974.22
2023-02-11T21:51:57.603Z,974.15
2023-02-11T21:54:57.996Z,974.24
2023-02-11T21:57:57.705Z,974.25
2023-02-11T22:00:57.787Z,974.23
2023-02-11T22:03:58.106Z,974.26
2023-02-11T22:06:57.874Z,974.29
2023-02-11T22:09:58.005Z,974.24
2023-02-11T22:12:58.125Z,974.19
2023-02-11T22:15:57.819Z,974.17
2023-02-11T22:18:57.556Z,974.18
2023-02-11T22:21:57.587Z,974.09
2023-02-11T22:24:57.473Z,974.16
2023-02-11T22:27:57.299Z,974.11
2023-02-11T22:30:57.914Z,974.06
2023-02-11T22:33:56.875Z,974.04
2023-02-11T22:36:57.901Z,974.14
2023-02-11T22:39:57.301Z,974.07
2023-02-11T22:42:56.895Z,974.05
2023-02-11T22:45:58.112Z,974.1
2023-02-11T22:48:57.647Z,974.12
2023-02-11T22:51:57.846Z,974.04
2023-02-11T22:54:57.385Z,974.04
2023-02-11T22:57:57.077Z,974.01
2023-02-11T23:00:57.695Z,974.08
2023-02-11T23:03:57.565Z,974.14
2023-02-11T23:06:56.993Z,974.17
2023-02-11T23:09:57.369Z,974.2
2023-02-11T23:12:57.562Z,974.08
2023-02-11T23:15:57.445Z,974.23
2023-02-11T23:18:57.349Z,974.13
2023-02-11T23:21:57.802Z,974.15
2023-02-11T23:24:56.946Z,974.33
2023-02-11T23:27:57.366Z,974.28
2023-02-11T23:30:57.800Z,974.35
2023-02-11T23:33:57.041Z,974.31
2023-02-11T23:36:57.685Z,974.38
2023-02-11T23:39:57.569Z,974.46
2023-02-11T23:42:56.737Z,974.56
2023-02-11T23:45:57.440Z,974.47
2023-02-11T23:48:57.703Z,974.46
2023-02-11T23:51:56.812Z,974.54
2023-02-11T23:54:57.725Z,974.59
2023-02-11T23:57:57.039Z,974.6
